Time;durP1;ratioP1;P1;durP2;ratioP2;P2;SDS_P1;SDS_P2;PMS_P1;PMS_P2;Temp;Humidity;BMP_temperature;BMP_pressure;BME280_temperature;BME280_humidity;BME280_pressure;Samples;Min_cycle;Max_cycle;Signal;HPM_P1;HPM_P2
2020/12/23 00:00:10;;;;;;;11.73;2.50;;;8.30;99.90;;;;;;4995580;28;20190;-62
2020/12/23 00:02:36;;;;;;;6.45;2.10;;;8.20;1.00;;;;;;4996407;28;20426;-61
2020/12/23 00:05:05;;;;;;;10.13;2.27;;;8.10;1.00;;;;;;4995928;28;20222;-62
2020/12/23 00:07:30;;;;;;;5.95;1.98;;;8.00;1.00;;;;;;4995757;28;20203;-62
2020/12/23 00:09:56;;;;;;;3.70;2.40;;;8.00;99.90;;;;;;4995816;28;20191;-63
2020/12/23 00:12:22;;;;;;;4.90;2.67;;;7.90;99.90;;;;;;4995763;28;20171;-62
2020/12/23 00:14:47;;;;;;;7.17;2.40;;;8.20;99.90;;;;;;4995592;28;20211;-62
2020/12/23 00:17:17;;;;;;;6.03;2.73;;;8.10;99.90;;;;;;4995846;28;20211;-62
2020/12/23 00:19:43;;;;;;;9.45;2.60;;;8.10;1.00;;;;;;4995791;28;20491;-62
2020/12/23 00:22:08;;;;;;;10.27;1.77;;;8.00;1.00;;;;;;4994749;28;20214;-62
2020/12/23 00:24:34;;;;;;;4.17;1.23;;;7.90;1.00;;;;;;4995362;28;20179;-62
2020/12/23 00:26:59;;;;;;;10.50;2.33;;;7.90;1.00;;;;;;4995562;28;20187;-62
2020/12/23 00:29:25;;;;;;;8.93;2.10;;;7.70;99.90;;;;;;4995549;28;20179;-62
2020/12/23 00:31:53;;;;;;;2.93;1.20;;;7.50;99.90;;;;;;4995474;28;20187;-62
2020/12/23 00:34:20;;;;;;;8.63;2.38;;;7.50;99.90;;;;;;4995685;28;20287;-62
2020/12/23 00:36:54;;;;;;;5.03;2.13;;;7.50;99.90;;;;;;4995296;28;20206;-62
2020/12/23 00:39:20;;;;;;;3.92;1.55;;;7.30;99.90;;;;;;4995303;28;20274;-62
2020/12/23 00:41:45;;;;;;;5.17;1.53;;;7.30;99.90;;;;;;4995556;28;20179;-63
2020/12/23 00:44:11;;;;;;;6.20;1.70;;;7.20;99.90;;;;;;4995276;28;20183;-63
2020/12/23 00:46:37;;;;;;;5.80;2.30;;;7.10;99.90;;;;;;4995831;28;20187;-63
2020/12/23 00:49:02;;;;;;;6.80;2.00;;;7.20;99.90;;;;;;4995539;28;20298;-63
2020/12/23 00:51:28;;;;;;;5.77;1.70;;;7.10;99.90;;;;;;4995361;28;20515;-63
2020/12/23 00:53:54;;;;;;;5.30;1.77;;;6.90;99.90;;;;;;4995333;28;20175;-63
2020/12/23 00:56:19;;;;;;;4.53;1.90;;;6.90;99.90;;;;;;4995456;28;20257;-63
2020/12/23 00:58:45;;;;;;;4.20;1.90;;;6.90;99.90;;;;;;4995390;28;20305;-63
2020/12/23 01:01:11;;;;;;;4.40;1.80;;;6.80;99.90;;;;;;4995515;28;20907;-63
2020/12/23 01:03:36;;;;;;;6.80;1.70;;;6.60;99.90;;;;;;4995553;28;20179;-63
2020/12/23 01:06:08;;;;;;;5.40;2.10;;;6.60;1.00;;;;;;4996026;28;20192;-63
2020/12/23 01:08:34;;;;;;;6.55;1.52;;;6.80;1.00;;;;;;4995131;28;20217;-62
2020/12/23 01:11:00;;;;;;;11.67;2.40;;;6.70;1.00;;;;;;4994782;28;20171;-63
2020/12/23 01:13:25;;;;;;;5.23;2.70;;;6.70;1.00;;;;;;4994275;28;20172;-62
2020/12/23 01:15:51;;;;;;;9.50;2.17;;;6.70;1.00;;;;;;4994690;28;20514;-63
2020/12/23 01:18:16;;;;;;;5.13;2.37;;;6.50;1.00;;;;;;4993850;28;20183;-62
2020/12/23 01:20:42;;;;;;;5.73;1.77;;;6.30;1.00;;;;;;4994958;28;20195;-63
2020/12/23 01:23:07;;;;;;;5.00;2.17;;;6.20;1.00;;;;;;4994581;28;20229;-63
2020/12/23 01:25:33;;;;;;;7.77;2.13;;;6.40;1.00;;;;;;4994666;28;20259;-63
2020/12/23 01:27:58;;;;;;;6.90;2.23;;;6.30;1.00;;;;;;4994444;28;20214;-63
2020/12/23 01:30:24;;;;;;;9.23;2.80;;;6.20;1.00;;;;;;4994554;28;20179;-63
2020/12/23 01:32:49;;;;;;;5.70;2.60;;;6.30;1.00;;;;;;4994576;28;20183;-63
2020/12/23 01:35:16;;;;;;;5.77;2.00;;;6.30;1.00;;;;;;4994076;28;20190;-62
2020/12/23 01:37:41;;;;;;;6.95;3.60;;;6.40;1.00;;;;;;4994378;28;20318;-62
2020/12/23 01:40:07;;;;;;;16.40;3.47;;;6.20;1.00;;;;;;4994423;28;20230;-62
2020/12/23 01:42:34;;;;;;;7.30;2.03;;;6.20;1.00;;;;;;4994449;28;20265;-62
2020/12/23 01:45:00;;;;;;;6.57;3.47;;;6.10;1.00;;;;;;4994322;28;20183;-62
2020/12/23 01:47:28;;;;;;;7.45;2.05;;;6.10;1.00;;;;;;4994249;28;20218;-62
2020/12/23 01:49:54;;;;;;;5.13;2.10;;;6.10;1.00;;;;;;4994569;28;20191;-63
2020/12/23 01:52:20;;;;;;;7.35;1.60;;;6.00;1.00;;;;;;4994269;28;20190;-62
2020/12/23 01:54:47;;;;;;;6.15;2.00;;;6.10;1.00;;;;;;4994228;28;20259;-63
2020/12/23 01:57:13;;;;;;;4.22;1.77;;;6.10;1.00;;;;;;4994455;28;20182;-62
2020/12/23 01:59:38;;;;;;;4.10;1.53;;;6.00;1.00;;;;;;4994295;28;20202;-63
2020/12/23 02:02:37;;;;;;;8.07;2.13;;;6.00;1.00;;;;;;4994157;28;20194;-63
2020/12/23 02:05:07;;;;;;;6.05;1.92;;;6.10;1.00;;;;;;4994098;28;20183;-63
2020/12/23 02:07:34;;;;;;;4.50;2.38;;;6.00;1.00;;;;;;4994292;28;20279;-62
2020/12/23 02:10:02;;;;;;;3.90;1.85;;;6.00;1.00;;;;;;4994118;28;20631;-62
2020/12/23 02:12:28;;;;;;;3.78;2.20;;;6.00;1.00;;;;;;4993172;28;20269;-62
2020/12/23 02:14:54;;;;;;;12.90;2.43;;;5.90;1.00;;;;;;4993742;28;20266;-62
2020/12/23 02:17:21;;;;;;;13.45;2.30;;;5.90;1.00;;;;;;4994177;28;20197;-62
2020/12/23 02:19:49;;;;;;;7.78;2.22;;;5.80;1.00;;;;;;4993947;28;20195;-62
2020/12/23 02:22:22;;;;;;;5.70;1.48;;;5.80;1.00;;;;;;4994339;28;20519;-63
2020/12/23 02:24:50;;;;;;;16.58;2.58;;;5.80;1.00;;;;;;4997597;28;20191;-63
2020/12/23 02:27:17;;;;;;;4.63;1.90;;;5.90;1.00;;;;;;4998420;28;20205;-63
2020/12/23 02:29:46;;;;;;;11.82;2.40;;;6.20;1.00;;;;;;4998287;28;20183;-62
2020/12/23 02:32:12;;;;;;;7.38;2.42;;;6.10;1.00;;;;;;4997913;28;20310;-62
2020/12/23 02:34:38;;;;;;;11.60;3.23;;;6.10;1.00;;;;;;4997482;28;20612;-62
2020/12/23 02:37:05;;;;;;;7.82;2.88;;;6.10;1.00;;;;;;4997911;28;20606;-63
2020/12/23 02:39:32;;;;;;;4.65;2.47;;;6.00;1.00;;;;;;4998205;28;20180;-63
2020/12/23 02:41:58;;;;;;;8.90;4.30;;;6.00;1.00;;;;;;4996799;28;20187;-63
2020/12/23 02:44:25;;;;;;;11.25;3.78;;;6.00;1.00;;;;;;4996226;28;20180;-63
2020/12/23 02:46:59;;;;;;;8.80;4.05;;;6.00;1.00;;;;;;4996673;28;20190;-62
2020/12/23 02:49:26;;;;;;;11.48;4.68;;;6.00;1.00;;;;;;4996488;28;20276;-63
2020/12/23 02:51:52;;;;;;;8.25;4.05;;;6.00;1.00;;;;;;4997861;28;20226;-63
2020/12/23 02:54:19;;;;;;;9.38;3.97;;;6.00;1.00;;;;;;4997472;28;20183;-63
2020/12/23 02:56:44;;;;;;;7.15;4.10;;;5.90;1.00;;;;;;4997613;28;20180;-63
2020/12/23 02:59:10;;;;;;;8.70;4.00;;;5.90;1.00;;;;;;4997543;28;20259;-63
2020/12/23 03:01:36;;;;;;;11.13;4.80;;;5.90;1.00;;;;;;4997612;28;20509;-63
2020/12/23 03:04:02;;;;;;;8.43;4.40;;;5.90;1.00;;;;;;4997583;28;20199;-63
2020/12/23 03:06:28;;;;;;;9.00;4.18;;;5.90;1.00;;;;;;4997414;28;20184;-63
2020/12/23 03:08:54;;;;;;;6.03;3.77;;;5.80;1.00;;;;;;4997087;28;20215;-62
2020/12/23 03:11:20;;;;;;;7.40;4.43;;;5.80;1.00;;;;;;4997333;28;20195;-62
2020/12/23 03:13:45;;;;;;;9.37;5.10;;;5.60;1.00;;;;;;4996994;28;20554;-62
2020/12/23 03:16:11;;;;;;;9.60;5.03;;;5.80;1.00;;;;;;4996934;28;20274;-62
2020/12/23 03:18:39;;;;;;;7.37;4.13;;;5.70;1.00;;;;;;4996986;28;20270;-63
2020/12/23 03:21:08;;;;;;;13.57;5.32;;;5.70;1.00;;;;;;4997116;28;20183;-63
2020/12/23 03:23:34;;;;;;;11.85;5.88;;;5.70;1.00;;;;;;4996865;28;20262;-63
2020/12/23 03:26:00;;;;;;;8.60;6.10;;;5.70;1.00;;;;;;4997439;28;20238;-63
2020/12/23 03:28:26;;;;;;;11.40;5.07;;;5.60;1.00;;;;;;4997068;28;20617;-63
2020/12/23 03:30:51;;;;;;;10.07;6.77;;;5.60;1.00;;;;;;4997025;28;20426;-63
2020/12/23 03:33:17;;;;;;;13.20;6.67;;;5.60;1.00;;;;;;4996631;28;20271;-63
2020/12/23 03:35:42;;;;;;;14.20;7.20;;;5.60;1.00;;;;;;4995988;28;20172;-63
2020/12/23 03:38:08;;;;;;;12.13;6.27;;;5.40;1.00;;;;;;4996413;28;20194;-63
2020/12/23 03:40:33;;;;;;;12.33;7.00;;;5.50;7.20;;;;;;4996637;28;20187;-63
2020/12/23 03:42:59;;;;;;;87.90;43.47;;;5.60;14.70;;;;;;4996500;28;20195;-62
2020/12/23 03:45:24;;;;;;;29.63;14.27;;;5.60;26.80;;;;;;4996282;28;20238;-62
2020/12/23 03:47:50;;;;;;;21.00;8.23;;;5.70;34.50;;;;;;4996193;28;20222;-62
2020/12/23 03:50:15;;;;;;;10.03;6.50;;;5.80;40.90;;;;;;4995437;28;20179;-62
2020/12/23 03:52:41;;;;;;;16.03;7.43;;;5.80;37.50;;;;;;4996185;28;20265;-62
2020/12/23 03:55:09;;;;;;;14.43;7.30;;;5.80;28.70;;;;;;4996097;28;20188;-63
2020/12/23 03:57:34;;;;;;;11.80;6.95;;;5.80;30.30;;;;;;4996300;28;20278;-63
2020/12/23 04:00:03;;;;;;;12.17;8.03;;;5.80;27.80;;;;;;4996321;28;20230;-63
2020/12/23 04:02:28;;;;;;;13.98;7.97;;;5.80;24.80;;;;;;4996540;28;20237;-63
2020/12/23 04:04:54;;;;;;;14.13;8.07;;;5.70;29.00;;;;;;4996232;28;20262;-63
2020/12/23 04:07:19;;;;;;;12.30;7.03;;;5.80;33.70;;;;;;4996448;28;20276;-62
2020/12/23 04:09:45;;;;;;;10.60;7.67;;;5.60;27.70;;;;;;4995961;28;20320;-62
2020/12/23 04:12:10;;;;;;;12.90;8.10;;;5.60;31.90;;;;;;4995918;28;20176;-61
2020/12/23 04:14:36;;;;;;;13.17;7.60;;;5.60;43.80;;;;;;4996163;28;20190;-63
2020/12/23 04:17:01;;;;;;;13.40;7.43;;;5.80;56.10;;;;;;4996094;28;20201;-63
2020/12/23 04:19:27;;;;;;;10.30;7.47;;;5.80;54.70;;;;;;4995954;28;20183;-63
2020/12/23 04:21:52;;;;;;;12.57;8.60;;;5.80;53.70;;;;;;4995365;28;20499;-62
2020/12/23 04:24:18;;;;;;;12.27;7.20;;;5.90;63.30;;;;;;4995460;28;20184;-62
2020/12/23 04:26:43;;;;;;;11.87;8.07;;;5.90;54.50;;;;;;4995741;28;20175;-62
2020/12/23 04:29:09;;;;;;;13.80;8.00;;;5.80;48.70;;;;;;4995684;28;20512;-62
2020/12/23 04:31:34;;;;;;;14.93;7.40;;;5.90;54.00;;;;;;4995975;28;20175;-62
2020/12/23 04:34:00;;;;;;;13.43;8.47;;;5.90;54.10;;;;;;4995321;28;20515;-62
2020/12/23 04:36:25;;;;;;;11.07;7.60;;;6.00;57.50;;;;;;4995588;28;20501;-62
2020/12/23 04:38:51;;;;;;;14.90;8.77;;;6.00;53.00;;;;;;4995525;28;20609;-62
2020/12/23 04:41:17;;;;;;;19.30;10.27;;;6.00;55.50;;;;;;4994772;28;20180;-63
2020/12/23 04:43:42;;;;;;;11.40;8.00;;;6.00;61.90;;;;;;4995580;28;20202;-63
2020/12/23 04:46:10;;;;;;;12.53;9.40;;;6.20;70.90;;;;;;4995495;28;20469;-63
2020/12/23 04:48:38;;;;;;;12.93;8.00;;;6.20;64.10;;;;;;4995351;28;20233;-63
2020/12/23 04:51:04;;;;;;;18.48;9.55;;;6.30;60.30;;;;;;4995624;28;20179;-63
2020/12/23 04:53:30;;;;;;;15.97;8.87;;;6.30;50.80;;;;;;4995533;28;20511;-63
2020/12/23 04:55:56;;;;;;;39.08;11.20;;;6.10;36.10;;;;;;4995628;28;20613;-63
2020/12/23 04:58:23;;;;;;;51.50;12.57;;;6.20;39.40;;;;;;4995361;28;20314;-63
2020/12/23 05:00:50;;;;;;;39.47;15.20;;;6.10;36.00;;;;;;4995224;28;20179;-62
2020/12/23 05:03:15;;;;;;;16.02;9.38;;;6.20;38.30;;;;;;4994962;28;20183;-62
2020/12/23 05:05:41;;;;;;;15.40;8.60;;;6.20;36.30;;;;;;4995370;28;20286;-63
2020/12/23 05:08:09;;;;;;;17.13;9.80;;;6.20;25.30;;;;;;4995652;28;20542;-63
2020/12/23 05:10:37;;;;;;;23.85;10.98;;;6.20;20.80;;;;;;4995011;28;20800;-63
2020/12/23 05:13:04;;;;;;;15.02;8.77;;;6.20;19.90;;;;;;4995225;28;20276;-63
2020/12/23 05:15:29;;;;;;;20.50;10.35;;;6.20;15.90;;;;;;4994709;28;20172;-62
2020/12/23 05:17:55;;;;;;;15.37;9.33;;;6.30;17.90;;;;;;4994791;28;20185;-62
2020/12/23 05:20:21;;;;;;;20.87;10.40;;;6.40;12.60;;;;;;4994963;28;20179;-62
2020/12/23 05:22:51;;;;;;;14.90;9.38;;;6.50;2.00;;;;;;4995021;28;20617;-64
2020/12/23 05:25:17;;;;;;;14.60;8.45;;;6.40;1.00;;;;;;4994436;28;20349;-63
2020/12/23 05:27:44;;;;;;;15.02;9.68;;;6.50;1.00;;;;;;4993569;28;20249;-63
2020/12/23 05:30:10;;;;;;;14.38;9.07;;;6.50;1.00;;;;;;4994543;28;20179;-64
2020/12/23 05:32:38;;;;;;;21.42;10.90;;;6.50;1.00;;;;;;4994714;28;20186;-63
2020/12/23 05:35:04;;;;;;;15.90;9.13;;;6.70;1.00;;;;;;4993076;28;20260;-63
2020/12/23 05:37:31;;;;;;;20.70;11.70;;;6.60;1.00;;;;;;4994388;28;20194;-63
2020/12/23 05:39:58;;;;;;;15.02;10.20;;;6.60;1.00;;;;;;4994332;28;20183;-63
2020/12/23 05:42:24;;;;;;;13.88;9.95;;;6.50;1.00;;;;;;4994313;28;20183;-62
2020/12/23 05:44:51;;;;;;;16.08;9.60;;;6.20;1.00;;;;;;4992962;28;20639;-61
2020/12/23 05:47:27;;;;;;;17.65;9.15;;;6.20;1.00;;;;;;4994130;28;20274;-62
2020/12/23 05:49:56;;;;;;;28.58;10.60;;;6.30;1.00;;;;;;4994261;28;20171;-63
2020/12/23 05:52:23;;;;;;;23.20;9.68;;;6.30;1.00;;;;;;4994463;28;20620;-63
2020/12/23 05:54:54;;;;;;;61.67;11.63;;;6.50;1.00;;;;;;4993819;28;20180;-63
2020/12/23 05:57:20;;;;;;;36.15;12.52;;;6.40;1.00;;;;;;4994322;28;20183;-63
2020/12/23 05:59:46;;;;;;;29.40;10.80;;;6.50;1.00;;;;;;4993696;28;20569;-64
2020/12/23 06:02:12;;;;;;;27.33;12.17;;;6.60;1.00;;;;;;4994291;28;20187;-63
2020/12/23 06:04:44;;;;;;;84.72;13.82;;;6.40;1.00;;;;;;4994023;28;20431;-63
2020/12/23 06:07:11;;;;;;;36.85;11.25;;;6.30;1.00;;;;;;4994229;28;20239;-63
2020/12/23 06:09:53;;;;;;;31.25;12.27;;;6.10;1.00;;;;;;4994203;28;20183;-63
2020/12/23 06:12:21;;;;;;;20.70;9.88;;;6.10;1.00;;;;;;4994573;28;20581;-62
2020/12/23 06:14:57;;;;;;;21.58;11.70;;;6.10;1.00;;;;;;4993908;28;20202;-62
2020/12/23 06:17:25;;;;;;;32.92;13.25;;;6.20;1.00;;;;;;4994290;28;20190;-62
2020/12/23 06:19:57;;;;;;;25.30;12.07;;;6.30;1.00;;;;;;4994104;28;20183;-62
2020/12/23 06:22:25;;;;;;;32.80;13.52;;;6.40;1.00;;;;;;4993954;28;20183;-61
2020/12/23 06:24:50;;;;;;;61.05;17.70;;;6.30;1.00;;;;;;4993866;28;20186;-62
2020/12/23 06:27:16;;;;;;;42.27;15.10;;;6.30;1.00;;;;;;4993896;28;20179;-62
2020/12/23 06:29:44;;;;;;;31.07;13.37;;;6.30;1.00;;;;;;4993697;28;20194;-62
2020/12/23 06:32:23;;;;;;;40.38;13.52;;;6.30;1.00;;;;;;4993723;28;20176;-62
2020/12/23 06:34:59;;;;;;;59.78;16.08;;;6.30;1.00;;;;;;4993605;28;20182;-62
2020/12/23 06:37:30;;;;;;;35.33;14.75;;;6.20;1.00;;;;;;4994110;28;20238;-62
2020/12/23 06:39:56;;;;;;;23.63;12.32;;;6.30;1.00;;;;;;4994503;28;20190;-62
2020/12/23 06:42:24;;;;;;;36.65;14.20;;;6.30;1.00;;;;;;4994747;28;20576;-62
2020/12/23 06:44:55;;;;;;;39.25;12.75;;;6.30;1.00;;;;;;4993972;28;20194;-62
2020/12/23 06:47:23;;;;;;;30.42;14.30;;;6.40;1.00;;;;;;4994122;28;20207;-62
2020/12/23 06:49:51;;;;;;;27.65;13.65;;;6.60;1.00;;;;;;4994170;28;20218;-62
2020/12/23 06:52:24;;;;;;;48.45;14.90;;;6.60;1.00;;;;;;4994390;28;20309;-62
2020/12/23 06:55:01;;;;;;;36.15;14.18;;;6.70;1.00;;;;;;4994009;28;20176;-62
2020/12/23 06:57:38;;;;;;;23.17;11.05;;;6.50;1.00;;;;;;4993425;28;20233;-62
2020/12/23 07:00:20;;;;;;;20.92;10.18;;;6.30;1.00;;;;;;4994300;28;20623;-62
2020/12/23 07:03:09;;;;;;;16.33;10.30;;;6.30;1.00;;;;;;4993915;28;20246;-62
2020/12/23 07:05:37;;;;;;;20.25;9.45;;;6.30;1.00;;;;;;4994293;28;20334;-62
2020/12/23 07:08:08;;;;;;;25.50;11.45;;;6.40;1.00;;;;;;4996425;28;20593;-62
2020/12/23 07:10:34;;;;;;;22.10;9.70;;;6.30;1.00;;;;;;4995604;28;20187;-62
2020/12/23 07:13:11;;;;;;;14.15;9.00;;;6.40;1.00;;;;;;4997269;28;20171;-62
2020/12/23 07:15:50;;;;;;;20.38;10.25;;;6.40;1.00;;;;;;4997262;28;20653;-62
2020/12/23 07:18:18;;;;;;;15.65;9.55;;;6.40;1.00;;;;;;4996858;28;20190;-62
2020/12/23 07:20:49;;;;;;;18.13;9.82;;;6.50;1.00;;;;;;4997248;28;20190;-62
2020/12/23 07:23:20;;;;;;;17.77;11.15;;;6.50;1.00;;;;;;4996974;28;20242;-63
2020/12/23 07:25:54;;;;;;;17.70;10.45;;;6.50;1.00;;;;;;5002559;28;20191;-63
2020/12/23 07:28:33;;;;;;;15.90;10.85;;;6.60;1.00;;;;;;4998858;28;20203;-63
2020/12/23 07:31:00;;;;;;;21.05;9.90;;;6.40;1.00;;;;;;4997105;28;20230;-62
2020/12/23 07:33:27;;;;;;;25.52;12.75;;;6.50;1.00;;;;;;4995636;28;20261;-61
2020/12/23 07:35:55;;;;;;;22.05;10.80;;;6.40;1.00;;;;;;4996674;28;20175;-61
2020/12/23 07:38:30;;;;;;;34.35;11.88;;;6.20;1.00;;;;;;4996553;28;20202;-61
2020/12/23 07:40:56;;;;;;;53.53;11.23;;;5.90;1.00;;;;;;4996548;28;20266;-61
2020/12/23 07:43:22;;;;;;;25.60;10.73;;;6.00;1.00;;;;;;4988893;28;20289;-59
2020/12/23 07:45:49;;;;;;;19.35;9.27;;;6.00;1.00;;;;;;4986006;28;20192;-59
2020/12/23 07:48:18;;;;;;;25.70;10.30;;;5.80;3.10;;;;;;4985487;28;20539;-59
2020/12/23 07:50:49;;;;;;;22.90;9.05;;;5.80;15.40;;;;;;4982873;28;20438;-59
2020/12/23 07:53:17;;;;;;;22.20;8.52;;;5.70;27.50;;;;;;4985285;28;20194;-59
2020/12/23 07:55:48;;;;;;;20.08;9.55;;;5.80;41.80;;;;;;4982593;28;20648;-59
2020/12/23 07:58:14;;;;;;;20.70;8.10;;;5.90;47.60;;;;;;4990313;28;20191;-59
2020/12/23 08:00:41;;;;;;;17.07;7.47;;;5.80;35.60;;;;;;4996037;28;20183;-59
2020/12/23 08:03:10;;;;;;;16.10;8.77;;;5.60;21.70;;;;;;4995808;28;20441;-59
2020/12/23 08:05:36;;;;;;;15.60;7.82;;;5.40;21.80;;;;;;4996088;28;20183;-59
2020/12/23 08:08:02;;;;;;;15.20;8.10;;;5.30;33.00;;;;;;4992698;28;20214;-60
2020/12/23 08:10:27;;;;;;;15.90;8.10;;;5.40;47.90;;;;;;4995901;28;20183;-60
2020/12/23 08:12:59;;;;;;;15.83;7.70;;;5.30;50.30;;;;;;4995237;28;20175;-59
2020/12/23 08:15:25;;;;;;;12.35;7.45;;;5.20;61.60;;;;;;4987269;28;20499;-59
2020/12/23 08:18:01;;;;;;;18.80;9.25;;;5.30;81.00;;;;;;4960811;28;20247;-60
2020/12/23 08:20:27;;;;;;;32.05;9.18;;;5.30;90.80;;;;;;4982938;28;20179;-60
2020/12/23 08:22:53;;;;;;;22.60;9.13;;;5.10;95.00;;;;;;4987189;28;20630;-62
2020/12/23 08:25:20;;;;;;;28.40;8.17;;;5.20;99.90;;;;;;4978063;28;20282;-60
2020/12/23 08:27:47;;;;;;;49.67;11.02;;;5.10;99.90;;;;;;4976115;28;20257;-59
2020/12/23 08:30:20;;;;;;;23.90;9.10;;;4.90;99.90;;;;;;4976223;28;20179;-60
2020/12/23 08:33:10;;;;;;;22.05;8.45;;;5.10;99.90;;;;;;4975729;28;20591;-59
2020/12/23 08:35:40;;;;;;;27.00;8.50;;;5.20;99.90;;;;;;4976052;28;20635;-60
2020/12/23 08:38:19;;;;;;;18.40;7.38;;;5.20;99.90;;;;;;4976020;28;20180;-60
2020/12/23 08:40:49;;;;;;;24.55;8.43;;;5.30;99.90;;;;;;4976032;28;20180;-59
2020/12/23 08:43:29;;;;;;;21.48;7.43;;;5.10;99.90;;;;;;4975969;28;20227;-62
2020/12/23 08:45:57;;;;;;;23.38;7.25;;;5.00;99.90;;;;;;4976117;28;20180;-60
2020/12/23 08:48:24;;;;;;;22.52;7.60;;;4.90;99.90;;;;;;4975790;28;20204;-60
2020/12/23 08:51:02;;;;;;;34.90;8.50;;;5.20;99.90;;;;;;4977566;28;20192;-63
2020/12/23 08:53:34;;;;;;;14.95;6.45;;;5.10;99.90;;;;;;4980718;28;20190;-62
2020/12/23 08:56:01;;;;;;;26.98;8.38;;;5.40;99.90;;;;;;4979773;28;20183;-62
2020/12/23 08:58:28;;;;;;;22.77;6.03;;;5.60;99.90;;;;;;4984840;28;20188;-62
2020/12/23 09:01:01;;;;;;;24.05;8.57;;;5.60;99.90;;;;;;4980616;28;20229;-62
2020/12/23 09:03:27;;;;;;;25.55;7.30;;;5.70;99.90;;;;;;4975227;28;20184;-62
2020/12/23 09:05:59;;;;;;;32.15;8.80;;;5.60;99.90;;;;;;4975618;28;20621;-62
2020/12/23 09:08:26;;;;;;;22.10;12.27;;;5.50;99.90;;;;;;4975498;28;20640;-62
2020/12/23 09:10:59;;;;;;;16.30;7.90;;;5.70;99.90;;;;;;4975305;28;20200;-62
2020/12/23 09:13:32;;;;;;;35.55;16.08;;;5.60;99.90;;;;;;4974470;28;20507;-61
2020/12/23 09:15:58;;;;;;;35.80;15.23;;;5.50;99.90;;;;;;4975325;28;20186;-63
2020/12/23 09:18:24;;;;;;;30.25;14.02;;;5.20;99.90;;;;;;4975235;28;20187;-64
2020/12/23 09:21:00;;;;;;;19.00;8.23;;;5.10;99.90;;;;;;4974401;28;20183;-64
2020/12/23 09:23:26;;;;;;;13.20;6.03;;;5.30;99.90;;;;;;4975106;28;20195;-65
2020/12/23 09:25:52;;;;;;;20.83;11.67;;;5.60;99.90;;;;;;4974977;28;20517;-65
2020/12/23 09:28:18;;;;;;;19.97;7.10;;;5.60;99.90;;;;;;4975145;28;20219;-65
2020/12/23 09:30:51;;;;;;;15.90;6.32;;;5.30;99.90;;;;;;4975127;28;20435;-65
2020/12/23 09:33:24;;;;;;;20.85;11.60;;;4.90;99.90;;;;;;4974200;28;20624;-65
2020/12/23 09:35:51;;;;;;;12.50;6.00;;;5.20;99.90;;;;;;4974934;28;20243;-65
2020/12/23 09:38:23;;;;;;;19.92;10.13;;;5.40;99.90;;;;;;4975186;28;20633;-65
2020/12/23 09:40:55;;;;;;;18.98;5.80;;;5.40;99.90;;;;;;4974081;28;20617;-65
2020/12/23 09:43:22;;;;;;;11.90;5.25;;;5.20;99.90;;;;;;4974761;28;20200;-65
2020/12/23 09:45:49;;;;;;;19.80;6.07;;;5.10;69.20;;;;;;4984000;28;20184;-65
2020/12/23 09:48:16;;;;;;;25.23;5.55;;;5.20;79.30;;;;;;4983318;28;20208;-66
2020/12/23 09:50:43;;;;;;;21.55;5.15;;;5.20;87.30;;;;;;4975496;28;20625;-66
2020/12/23 09:53:10;;;;;;;13.50;5.70;;;5.20;68.70;;;;;;4974023;28;20188;-66
2020/12/23 09:55:35;;;;;;;28.75;15.07;;;5.10;69.80;;;;;;4974161;28;20180;-65
2020/12/23 09:58:01;;;;;;;17.83;7.73;;;5.40;88.10;;;;;;4973913;28;20222;-65
2020/12/23 10:00:27;;;;;;;11.07;5.10;;;5.40;74.90;;;;;;4975223;28;20242;-65
2020/12/23 10:02:54;;;;;;;9.07;5.28;;;5.20;62.50;;;;;;4974629;28;20184;-65
2020/12/23 10:05:20;;;;;;;9.63;4.47;;;5.30;71.60;;;;;;4973917;28;20274;-65
2020/12/23 10:07:45;;;;;;;12.23;5.47;;;5.30;71.30;;;;;;4973449;28;20723;-65
2020/12/23 10:10:11;;;;;;;7.97;5.07;;;5.60;89.70;;;;;;4973461;28;20195;-65
2020/12/23 10:12:37;;;;;;;13.80;5.40;;;5.60;74.90;;;;;;4974391;28;20210;-65
2020/12/23 10:15:04;;;;;;;7.27;5.30;;;5.80;81.60;;;;;;4973355;28;20176;-65
2020/12/23 10:17:30;;;;;;;12.10;5.25;;;5.80;56.10;;;;;;4974620;28;20435;-65
2020/12/23 10:19:55;;;;;;;7.87;4.70;;;5.90;33.50;;;;;;4970415;28;20227;-65
2020/12/23 10:22:21;;;;;;;7.87;5.07;;;5.90;1.00;;;;;;4972500;28;20200;-65
2020/12/23 10:24:47;;;;;;;8.30;4.50;;;6.00;1.00;;;;;;4973106;28;20201;-65
2020/12/23 10:27:13;;;;;;;8.63;4.60;;;5.80;1.00;;;;;;4974418;28;20620;-65
2020/12/23 10:29:38;;;;;;;12.50;4.82;;;5.70;1.00;;;;;;4973474;28;20176;-65
2020/12/23 10:32:04;;;;;;;7.47;4.43;;;5.80;1.00;;;;;;4973587;28;20195;-64
2020/12/23 10:34:30;;;;;;;8.70;4.37;;;5.80;1.00;;;;;;4972974;28;20271;-64
2020/12/23 10:36:55;;;;;;;8.60;4.40;;;5.70;1.00;;;;;;4974939;28;20207;-65
2020/12/23 10:39:21;;;;;;;5.03;4.27;;;5.80;1.00;;;;;;4975041;28;20192;-65
2020/12/23 10:41:51;;;;;;;4.97;3.40;;;5.80;1.00;;;;;;4974784;28;20263;-65
2020/12/23 10:44:17;;;;;;;6.45;4.10;;;5.70;1.00;;;;;;4975266;28;20176;-64
2020/12/23 10:46:43;;;;;;;8.03;4.87;;;5.90;1.00;;;;;;4978312;28;20180;-64
2020/12/23 10:49:08;;;;;;;10.17;4.53;;;5.90;1.00;;;;;;4977975;28;20220;-64
2020/12/23 10:51:34;;;;;;;6.77;3.60;;;6.20;1.00;;;;;;4977350;28;20267;-64
2020/12/23 10:53:59;;;;;;;6.00;3.93;;;6.30;1.00;;;;;;4978653;28;20230;-64
2020/12/23 10:56:25;;;;;;;6.60;4.20;;;6.10;1.00;;;;;;4986658;28;20194;-64
2020/12/23 10:58:51;;;;;;;7.20;4.03;;;6.00;1.00;;;;;;4985513;28;20250;-64
2020/12/23 11:01:20;;;;;;;6.63;4.33;;;5.90;1.00;;;;;;4988291;28;20449;-64
2020/12/23 11:03:46;;;;;;;19.52;4.75;;;5.90;1.00;;;;;;4980406;28;20188;-64
2020/12/23 11:06:14;;;;;;;6.63;4.18;;;5.70;1.00;;;;;;4973484;28;20226;-61
2020/12/23 11:08:40;;;;;;;5.80;4.03;;;5.70;1.00;;;;;;4966980;28;20716;-61
2020/12/23 11:11:06;;;;;;;6.78;4.32;;;5.90;1.00;;;;;;4967713;28;20223;-61
2020/12/23 11:13:31;;;;;;;5.57;4.03;;;6.10;1.00;;;;;;4969476;28;20221;-61
2020/12/23 11:15:57;;;;;;;5.37;4.53;;;6.10;1.00;;;;;;4969037;28;20613;-61
2020/12/23 11:18:22;;;;;;;7.40;5.47;;;6.20;1.00;;;;;;4967858;28;20552;-63
2020/12/23 11:20:48;;;;;;;11.10;5.60;;;6.50;1.00;;;;;;4969447;28;20236;-64
2020/12/23 11:23:26;;;;;;;21.27;8.70;;;6.50;1.00;;;;;;4966674;28;20272;-63
2020/12/23 11:25:52;;;;;;;10.50;6.80;;;6.60;1.00;;;;;;4975203;28;20242;-63
2020/12/23 11:28:18;;;;;;;8.80;5.67;;;6.70;1.00;;;;;;4978296;28;20212;-63
2020/12/23 11:30:44;;;;;;;8.77;5.70;;;6.50;1.00;;;;;;4977016;28;20482;-63
2020/12/23 11:33:10;;;;;;;8.50;5.13;;;6.30;1.00;;;;;;4985372;28;20434;-63
2020/12/23 11:35:35;;;;;;;8.23;6.00;;;6.30;1.00;;;;;;4968698;28;20184;-63
2020/12/23 11:38:01;;;;;;;6.10;4.83;;;6.20;1.00;;;;;;4968138;28;20226;-63
2020/12/23 11:40:27;;;;;;;8.03;5.97;;;6.20;1.00;;;;;;4967576;28;20191;-63
2020/12/23 11:42:52;;;;;;;8.33;5.80;;;6.10;1.00;;;;;;4971099;28;20540;-60
2020/12/23 11:45:18;;;;;;;10.10;7.10;;;6.10;1.00;;;;;;4962521;28;20216;-60
2020/12/23 11:47:43;;;;;;;13.27;7.80;;;6.20;2.10;;;;;;4968895;28;20270;-61
2020/12/23 11:50:09;;;;;;;7.10;5.60;;;6.30;8.70;;;;;;4966617;28;20184;-61
2020/12/23 11:52:35;;;;;;;8.70;6.40;;;6.10;8.00;;;;;;4968673;28;20204;-61
2020/12/23 11:55:00;;;;;;;45.43;24.80;;;6.20;34.10;;;;;;4967248;28;20203;-60
2020/12/23 11:57:26;;;;;;;13.80;8.87;;;6.30;51.50;;;;;;4967794;28;20184;-61
2020/12/23 11:59:52;;;;;;;39.23;20.30;;;6.50;81.50;;;;;;4969522;28;20533;-63
2020/12/23 12:02:17;;;;;;;10.77;8.37;;;6.50;73.00;;;;;;4966585;28;20203;-60
2020/12/23 12:04:43;;;;;;;13.10;8.47;;;6.50;55.80;;;;;;4966217;28;20188;-63
2020/12/23 12:07:08;;;;;;;11.10;8.20;;;6.60;54.40;;;;;;4966845;28;20268;-60
2020/12/23 12:09:34;;;;;;;12.83;7.67;;;6.40;37.10;;;;;;4965927;28;20208;-64
2020/12/23 12:12:00;;;;;;;8.30;6.30;;;6.20;44.50;;;;;;4969450;28;20185;-63
2020/12/23 12:14:25;;;;;;;10.13;6.10;;;6.10;71.90;;;;;;4967468;28;20263;-64
2020/12/23 12:16:51;;;;;;;9.00;5.80;;;6.00;99.90;;;;;;4969576;28;20610;-64
2020/12/23 12:19:16;;;;;;;7.80;5.43;;;6.00;99.90;;;;;;4966978;28;20188;-64
2020/12/23 12:21:42;;;;;;;9.30;5.63;;;5.90;99.90;;;;;;4972933;28;20196;-65
2020/12/23 12:24:07;;;;;;;7.50;5.40;;;5.90;99.90;;;;;;4968261;28;20220;-63
2020/12/23 12:26:34;;;;;;;7.40;5.40;;;6.00;99.90;;;;;;4968018;28;20188;-63
2020/12/23 12:29:00;;;;;;;8.10;6.20;;;6.20;99.90;;;;;;4967443;28;20208;-64
2020/12/23 12:31:27;;;;;;;8.48;5.25;;;6.40;99.90;;;;;;4965956;28;20604;-64
2020/12/23 12:33:54;;;;;;;8.35;5.35;;;6.60;99.90;;;;;;4980297;28;20191;-64
2020/12/23 12:36:21;;;;;;;9.07;6.55;;;6.80;99.90;;;;;;4983189;28;20206;-65
2020/12/23 12:38:47;;;;;;;7.75;5.20;;;6.60;99.90;;;;;;4977152;28;20511;-64
2020/12/23 12:41:13;;;;;;;8.77;6.85;;;6.70;99.90;;;;;;4985873;28;20188;-66
2020/12/23 12:43:39;;;;;;;11.17;8.00;;;6.70;99.90;;;;;;4994947;28;20533;-65
2020/12/23 12:46:09;;;;;;;12.45;9.07;;;6.60;99.90;;;;;;4980537;28;20439;-65
2020/12/23 12:48:34;;;;;;;12.38;7.55;;;6.60;99.90;;;;;;4975243;28;20203;-64
2020/12/23 12:51:00;;;;;;;14.73;9.10;;;6.60;99.90;;;;;;4993117;28;20226;-64
2020/12/23 12:53:26;;;;;;;15.50;9.67;;;6.70;99.90;;;;;;4996278;28;20194;-65